sensor_id;sensor_type;location;lat;lon;timestamp;pressure;altitude;pressure_sealevel;temperature;humidity
56811;BME280;42691;47.234;27.494;2022-11-21T00:00:34;99039.88;;;8.31;100.00
56811;BME280;42691;47.234;27.494;2022-11-21T00:03:00;99066.50;;;8.35;100.00
56811;BME280;42691;47.234;27.494;2022-11-21T00:05:28;99072.63;;;8.32;100.00
56811;BME280;42691;47.234;27.494;2022-11-21T00:07:54;99079.47;;;8.35;100.00
56811;BME280;42691;47.234;27.494;2022-11-21T00:10:20;99073.34;;;8.36;100.00
56811;BME280;42691;47.234;27.494;2022-11-21T00:12:45;99059.00;;;8.29;100.00
56811;BME280;42691;47.234;27.494;2022-11-21T00:15:11;99041.78;;;8.28;100.00
56811;BME280;42691;47.234;27.494;2022-11-21T00:17:36;99055.34;;;8.33;100.00
56811;BME280;42691;47.234;27.494;2022-11-21T00:20:02;99049.53;;;8.28;100.00
56811;BME280;42691;47.234;27.494;2022-11-21T00:22:27;99049.84;;;8.22;100.00
56811;BME280;42691;47.234;27.494;2022-11-21T00:24:53;99075.47;;;8.28;100.00
56811;BME280;42691;47.234;27.494;2022-11-21T00:27:18;99040.97;;;8.08;100.00
56811;BME280;42691;47.234;27.494;2022-11-21T00:29:44;99066.91;;;8.26;100.00
56811;BME280;42691;47.234;27.494;2022-11-21T00:32:09;99075.47;;;8.28;100.00
56811;BME280;42691;47.234;27.494;2022-11-21T00:34:35;99084.06;;;8.28;100.00
56811;BME280;42691;47.234;27.494;2022-11-21T00:37:00;99073.78;;;8.27;100.00
56811;BME280;42691;47.234;27.494;2022-11-21T00:39:25;99070.44;;;8.25;100.00
56811;BME280;42691;47.234;27.494;2022-11-21T00:41:51;99064.31;;;8.26;100.00
56811;BME280;42691;47.234;27.494;2022-11-21T00:44:16;99063.41;;;8.27;100.00
56811;BME280;42691;47.234;27.494;2022-11-21T00:46:42;99053.19;;;8.24;100.00
56811;BME280;42691;47.234;27.494;2022-11-21T00:49:07;99056.63;;;8.24;100.00
56811;BME280;42691;47.234;27.494;2022-11-21T00:51:32;99054.03;;;8.24;100.00
56811;BME280;42691;47.234;27.494;2022-11-21T00:53:58;99050.47;;;8.27;100.00
56811;BME280;42691;47.234;27.494;2022-11-21T00:56:23;99052.38;;;8.23;100.00
56811;BME280;42691;47.234;27.494;2022-11-21T00:58:49;99067.06;;;8.23;100.00
56811;BME280;42691;47.234;27.494;2022-11-21T01:01:15;99087.66;;;8.26;100.00
56811;BME280;42691;47.234;27.494;2022-11-21T01:03:41;99071.56;;;8.19;100.00
56811;BME280;42691;47.234;27.494;2022-11-21T01:06:08;99070.56;;;8.22;100.00
56811;BME280;42691;47.234;27.494;2022-11-21T01:08:37;99084.16;;;8.27;100.00
56811;BME280;42691;47.234;27.494;2022-11-21T01:11:10;99091.00;;;8.28;100.00
56811;BME280;42691;47.234;27.494;2022-11-21T01:13:36;99080.78;;;8.25;100.00
56811;BME280;42691;47.234;27.494;2022-11-21T01:18:28;99087.50;;;8.29;100.00
56811;BME280;42691;47.234;27.494;2022-11-21T01:20:58;99078.97;;;8.27;100.00
56811;BME280;42691;47.234;27.494;2022-11-21T01:23:24;99072.03;;;8.27;100.00
56811;BME280;42691;47.234;27.494;2022-11-21T01:25:49;99072.78;;;8.29;100.00
56811;BME280;42691;47.234;27.494;2022-11-21T01:28:15;99071.13;;;8.28;100.00
56811;BME280;42691;47.234;27.494;2022-11-21T01:30:40;99070.97;;;8.31;100.00
56811;BME280;42691;47.234;27.494;2022-11-21T01:33:06;99070.13;;;8.31;100.00
56811;BME280;42691;47.234;27.494;2022-11-21T01:35:31;99060.06;;;8.25;100.00
56811;BME280;42691;47.234;27.494;2022-11-21T01:37:57;99057.16;;;8.31;100.00
56811;BME280;42691;47.234;27.494;2022-11-21T01:40:22;99037.44;;;8.28;100.00
56811;BME280;42691;47.234;27.494;2022-11-21T01:42:50;99032.16;;;8.30;100.00
56811;BME280;42691;47.234;27.494;2022-11-21T01:46:25;99024.63;;;8.25;100.00
56811;BME280;42691;47.234;27.494;2022-11-21T01:51:24;99007.31;;;8.26;100.00
56811;BME280;42691;47.234;27.494;2022-11-21T01:54:00;98999.13;;;8.16;100.00
56811;BME280;42691;47.234;27.494;2022-11-21T01:56:29;99008.25;;;8.25;100.00
56811;BME280;42691;47.234;27.494;2022-11-21T01:58:58;99008.38;;;8.22;100.00
56811;BME280;42691;47.234;27.494;2022-11-21T02:01:25;99009.38;;;8.19;100.00
56811;BME280;42691;47.234;27.494;2022-11-21T02:03:51;99008.66;;;8.15;100.00
56811;BME280;42691;47.234;27.494;2022-11-21T02:06:18;98999.97;;;8.16;100.00
56811;BME280;42691;47.234;27.494;2022-11-21T02:08:44;98994.78;;;8.16;100.00
56811;BME280;42691;47.234;27.494;2022-11-21T02:11:29;98984.44;;;8.16;100.00
56811;BME280;42691;47.234;27.494;2022-11-21T02:13:58;98986.25;;;8.14;100.00
56811;BME280;42691;47.234;27.494;2022-11-21T02:16:24;98989.91;;;8.10;100.00
56811;BME280;42691;47.234;27.494;2022-11-21T02:18:49;98986.56;;;8.08;100.00
56811;BME280;42691;47.234;27.494;2022-11-21T02:21:18;98985.88;;;8.05;100.00
56811;BME280;42691;47.234;27.494;2022-11-21T02:26:35;98962.19;;;7.95;100.00
56811;BME280;42691;47.234;27.494;2022-11-21T02:29:00;98960.13;;;8.02;100.00
56811;BME280;42691;47.234;27.494;2022-11-21T02:31:26;98955.03;;;8.00;100.00
56811;BME280;42691;47.234;27.494;2022-11-21T02:33:51;98943.06;;;7.98;100.00
56811;BME280;42691;47.234;27.494;2022-11-21T02:36:33;98952.66;;;7.96;100.00
56811;BME280;42691;47.234;27.494;2022-11-21T02:39:01;98957.84;;;7.96;100.00
56811;BME280;42691;47.234;27.494;2022-11-21T02:41:28;98957.78;;;7.97;100.00
56811;BME280;42691;47.234;27.494;2022-11-21T02:44:13;98965.47;;;7.99;100.00
56811;BME280;42691;47.234;27.494;2022-11-21T02:46:48;98958.69;;;7.96;100.00
56811;BME280;42691;47.234;27.494;2022-11-21T02:49:18;98963.72;;;7.99;100.00
56811;BME280;42691;47.234;27.494;2022-11-21T02:51:46;98954.13;;;8.01;100.00
56811;BME280;42691;47.234;27.494;2022-11-21T02:54:12;98941.91;;;8.03;100.00
56811;BME280;42691;47.234;27.494;2022-11-21T02:56:37;98947.94;;;8.04;100.00
56811;BME280;42691;47.234;27.494;2022-11-21T02:59:03;98939.09;;;8.08;100.00
56811;BME280;42691;47.234;27.494;2022-11-21T03:01:28;98939.50;;;8.00;100.00
56811;BME280;42691;47.234;27.494;2022-11-21T03:03:54;98963.94;;;8.12;100.00
56811;BME280;42691;47.234;27.494;2022-11-21T03:06:19;98981.09;;;8.14;100.00
56811;BME280;42691;47.234;27.494;2022-11-21T03:08:44;98979.25;;;8.16;100.00
56811;BME280;42691;47.234;27.494;2022-11-21T03:11:10;98962.03;;;8.15;100.00
56811;BME280;42691;47.234;27.494;2022-11-21T03:13:36;98944.81;;;8.14;100.00
56811;BME280;42691;47.234;27.494;2022-11-21T03:16:01;98934.25;;;8.19;100.00
56811;BME280;42691;47.234;27.494;2022-11-21T03:18:26;98930.75;;;8.20;100.00
56811;BME280;42691;47.234;27.494;2022-11-21T03:20:52;98924.78;;;8.18;100.00
56811;BME280;42691;47.234;27.494;2022-11-21T03:23:17;98913.56;;;8.18;100.00
56811;BME280;42691;47.234;27.494;2022-11-21T03:25:43;98923.94;;;8.18;100.00
56811;BME280;42691;47.234;27.494;2022-11-21T03:28:08;98953.34;;;8.16;100.00
56811;BME280;42691;47.234;27.494;2022-11-21T03:30:34;98966.25;;;8.18;100.00
56811;BME280;42691;47.234;27.494;2022-11-21T03:32:59;98957.56;;;8.19;100.00
56811;BME280;42691;47.234;27.494;2022-11-21T03:35:25;98944.59;;;8.19;100.00
56811;BME280;42691;47.234;27.494;2022-11-21T03:37:51;98927.16;;;8.23;100.00
56811;BME280;42691;47.234;27.494;2022-11-21T03:40:16;98925.31;;;8.25;100.00
56811;BME280;42691;47.234;27.494;2022-11-21T03:42:42;98919.16;;;8.27;100.00
56811;BME280;42691;47.234;27.494;2022-11-21T03:45:08;98913.28;;;8.24;100.00
56811;BME280;42691;47.234;27.494;2022-11-21T03:47:33;98930.34;;;8.28;100.00
56811;BME280;42691;47.234;27.494;2022-11-21T03:49:58;98939.13;;;8.25;100.00
56811;BME280;42691;47.234;27.494;2022-11-21T03:52:24;98927.75;;;8.28;100.00
56811;BME280;42691;47.234;27.494;2022-11-21T03:54:50;98924.56;;;8.23;100.00
56811;BME280;42691;47.234;27.494;2022-11-21T03:57:15;98930.19;;;8.31;100.00
56811;BME280;42691;47.234;27.494;2022-11-21T03:59:40;98931.09;;;8.30;100.00
56811;BME280;42691;47.234;27.494;2022-11-21T04:02:06;98942.19;;;8.33;100.00
56811;BME280;42691;47.234;27.494;2022-11-21T04:04:31;98933.63;;;8.31;100.00
56811;BME280;42691;47.234;27.494;2022-11-21T04:06:57;98929.22;;;8.33;100.00
56811;BME280;42691;47.234;27.494;2022-11-21T04:09:22;98935.28;;;8.32;100.00
56811;BME280;42691;47.234;27.494;2022-11-21T04:11:48;98926.56;;;8.35;100.00
56811;BME280;42691;47.234;27.494;2022-11-21T04:14:13;98921.44;;;8.33;100.00
56811;BME280;42691;47.234;27.494;2022-11-21T04:16:39;98912.81;;;8.33;100.00
56811;BME280;42691;47.234;27.494;2022-11-21T04:19:04;98903.44;;;8.30;100.00
56811;BME280;42691;47.234;27.494;2022-11-21T04:21:29;98892.22;;;8.30;100.00
56811;BME280;42691;47.234;27.494;2022-11-21T04:23:55;98885.53;;;8.26;100.00
56811;BME280;42691;47.234;27.494;2022-11-21T04:26:20;98880.44;;;8.24;100.00
56811;BME280;42691;47.234;27.494;2022-11-21T04:28:46;98870.91;;;8.25;100.00
56811;BME280;42691;47.234;27.494;2022-11-21T04:31:12;98869.22;;;8.24;100.00
56811;BME280;42691;47.234;27.494;2022-11-21T04:33:38;98859.94;;;8.20;100.00
56811;BME280;42691;47.234;27.494;2022-11-21T04:36:04;98862.63;;;8.18;100.00
56811;BME280;42691;47.234;27.494;2022-11-21T04:38:30;98859.03;;;8.21;100.00
56811;BME280;42691;47.234;27.494;2022-11-21T04:40:55;98858.28;;;8.19;100.00
56811;BME280;42691;47.234;27.494;2022-11-21T04:43:21;98850.56;;;8.17;100.00
56811;BME280;42691;47.234;27.494;2022-11-21T04:45:46;98847.06;;;8.18;100.00
56811;BME280;42691;47.234;27.494;2022-11-21T04:48:11;98846.19;;;8.18;100.00
56811;BME280;42691;47.234;27.494;2022-11-21T04:50:37;98837.38;;;8.22;100.00
56811;BME280;42691;47.234;27.494;2022-11-21T04:53:02;98825.63;;;8.14;100.00
56811;BME280;42691;47.234;27.494;2022-11-21T04:55:30;98829.16;;;8.13;100.00
56811;BME280;42691;47.234;27.494;2022-11-21T04:57:56;98822.88;;;8.18;100.00
56811;BME280;42691;47.234;27.494;2022-11-21T05:00:21;98818.56;;;8.18;100.00
56811;BME280;42691;47.234;27.494;2022-11-21T05:02:47;98812.53;;;8.18;100.00
56811;BME280;42691;47.234;27.494;2022-11-21T05:05:13;98810.94;;;8.15;100.00
56811;BME280;42691;47.234;27.494;2022-11-21T05:07:38;98817.66;;;8.19;100.00
56811;BME280;42691;47.234;27.494;2022-11-21T05:10:05;98822.28;;;8.12;100.00
56811;BME280;42691;47.234;27.494;2022-11-21T05:12:30;98810.41;;;8.08;100.00
56811;BME280;42691;47.234;27.494;2022-11-21T05:15:14;98818.03;;;8.11;100.00
56811;BME280;42691;47.234;27.494;2022-11-21T05:17:40;98812.84;;;8.11;100.00
56811;BME280;42691;47.234;27.494;2022-11-21T05:20:06;98805.25;;;8.08;100.00
56811;BME280;42691;47.234;27.494;2022-11-21T05:22:31;98808.59;;;8.10;100.00
56811;BME280;42691;47.234;27.494;2022-11-21T05:24:57;98807.91;;;8.07;100.00
56811;BME280;42691;47.234;27.494;2022-11-21T05:27:22;98795.94;;;8.04;100.00
56811;BME280;42691;47.234;27.494;2022-11-21T05:29:47;98790.69;;;8.06;100.00
56811;BME280;42691;47.234;27.494;2022-11-21T05:32:13;98793.38;;;8.04;100.00
56811;BME280;42691;47.234;27.494;2022-11-21T05:34:38;98788.19;;;8.04;100.00
56811;BME280;42691;47.234;27.494;2022-11-21T05:37:04;98777.97;;;8.01;100.00
56811;BME280;42691;47.234;27.494;2022-11-21T05:39:29;98782.25;;;8.02;100.00
56811;BME280;42691;47.234;27.494;2022-11-21T05:41:55;98752.66;;;7.91;100.00
56811;BME280;42691;47.234;27.494;2022-11-21T05:44:20;98769.63;;;7.96;100.00
56811;BME280;42691;47.234;27.494;2022-11-21T05:46:46;98761.75;;;7.82;100.00
56811;BME280;42691;47.234;27.494;2022-11-21T05:49:12;98760.06;;;7.81;100.00
56811;BME280;42691;47.234;27.494;2022-11-21T05:51:37;98753.34;;;7.77;100.00
56811;BME280;42691;47.234;27.494;2022-11-21T05:54:03;98744.97;;;7.72;100.00
56811;BME280;42691;47.234;27.494;2022-11-21T05:56:29;98734.09;;;7.65;100.00
56811;BME280;42691;47.234;27.494;2022-11-21T05:58:55;98720.88;;;7.54;100.00
56811;BME280;42691;47.234;27.494;2022-11-21T06:01:22;98730.03;;;7.44;100.00
56811;BME280;42691;47.234;27.494;2022-11-21T06:04:06;98722.19;;;7.45;100.00
56811;BME280;42691;47.234;27.494;2022-11-21T06:06:32;98719.72;;;7.60;100.00
56811;BME280;42691;47.234;27.494;2022-11-21T06:08:58;98717.06;;;7.61;100.00
56811;BME280;42691;47.234;27.494;2022-11-21T06:11:23;98682.31;;;7.49;100.00
56811;BME280;42691;47.234;27.494;2022-11-21T06:13:49;98729.44;;;7.72;100.00
56811;BME280;42691;47.234;27.494;2022-11-21T06:16:16;98722.28;;;7.77;100.00
56811;BME280;42691;47.234;27.494;2022-11-21T06:18:47;98718.25;;;7.71;100.00
56811;BME280;42691;47.234;27.494;2022-11-21T06:21:13;98726.63;;;7.76;100.00
56811;BME280;42691;47.234;27.494;2022-11-21T06:23:39;98732.63;;;7.77;100.00
56811;BME280;42691;47.234;27.494;2022-11-21T06:26:07;98753.97;;;7.82;100.00
56811;BME280;42691;47.234;27.494;2022-11-21T06:28:35;98755.72;;;7.81;100.00
56811;BME280;42691;47.234;27.494;2022-11-21T06:31:18;98756.84;;;7.76;100.00
56811;BME280;42691;47.234;27.494;2022-11-21T06:33:44;98753.50;;;7.74;100.00
56811;BME280;42691;47.234;27.494;2022-11-21T06:36:14;98741.31;;;7.76;100.00
56811;BME280;42691;47.234;27.494;2022-11-21T06:38:41;98731.13;;;7.73;100.00
56811;BME280;42691;47.234;27.494;2022-11-21T06:43:35;98707.91;;;7.71;100.00
56811;BME280;42691;47.234;27.494;2022-11-21T06:46:00;98711.25;;;7.73;100.00
56811;BME280;42691;47.234;27.494;2022-11-21T06:48:29;98681.00;;;7.58;100.00
56811;BME280;42691;47.234;27.494;2022-11-21T06:50:55;98712.72;;;7.62;100.00
56811;BME280;42691;47.234;27.494;2022-11-21T06:53:20;98704.03;;;7.63;100.00
56811;BME280;42691;47.234;27.494;2022-11-21T06:55:46;98701.28;;;7.66;100.00
56811;BME280;42691;47.234;27.494;2022-11-21T06:58:11;98707.06;;;7.71;100.00
56811;BME280;42691;47.234;27.494;2022-11-21T07:00:37;98706.81;;;7.75;100.00
56811;BME280;42691;47.234;27.494;2022-11-21T07:03:03;98713.47;;;7.81;100.00
56811;BME280;42691;47.234;27.494;2022-11-21T07:05:29;98705.53;;;7.84;100.00
56811;BME280;42691;47.234;27.494;2022-11-21T07:07:59;98690.44;;;7.75;100.00
56811;BME280;42691;47.234;27.494;2022-11-21T07:10:24;98698.69;;;7.83;100.00
56811;BME280;42691;47.234;27.494;2022-11-21T07:12:50;98672.88;;;7.81;100.00
56811;BME280;42691;47.234;27.494;2022-11-21T07:15:34;98683.97;;;7.83;100.00
56811;BME280;42691;47.234;27.494;2022-11-21T07:18:00;98672.78;;;7.83;100.00
56811;BME280;42691;47.234;27.494;2022-11-21T07:20:26;98671.19;;;7.80;100.00
56811;BME280;42691;47.234;27.494;2022-11-21T07:22:55;98661.69;;;7.81;100.00
56811;BME280;42691;47.234;27.494;2022-11-21T07:25:21;98644.44;;;7.80;100.00
56811;BME280;42691;47.234;27.494;2022-11-21T07:27:47;98640.13;;;7.80;100.00
56811;BME280;42691;47.234;27.494;2022-11-21T07:30:13;98646.28;;;7.78;100.00
56811;BME280;42691;47.234;27.494;2022-11-21T07:32:39;98638.09;;;7.70;100.00
56811;BME280;42691;47.234;27.494;2022-11-21T07:35:05;98630.00;;;7.76;100.00
56811;BME280;42691;47.234;27.494;2022-11-21T07:37:31;98625.72;;;7.75;100.00
56811;BME280;42691;47.234;27.494;2022-11-21T07:39:56;98637.75;;;7.76;100.00
56811;BME280;42691;47.234;27.494;2022-11-21T07:42:22;98649.63;;;7.80;100.00
56811;BME280;42691;47.234;27.494;2022-11-21T07:44:48;98663.47;;;7.79;100.00
56811;BME280;42691;47.234;27.494;2022-11-21T07:47:14;98687.41;;;7.84;100.00
56811;BME280;42691;47.234;27.494;2022-11-21T07:49:39;98698.69;;;7.83;100.00
56811;BME280;42691;47.234;27.494;2022-11-21T07:52:05;98689.06;;;7.85;100.00
56811;BME280;42691;47.234;27.494;2022-11-21T07:54:30;98692.41;;;7.87;100.00
56811;BME280;42691;47.234;27.494;2022-11-21T07:56:56;98679.63;;;7.84;100.00
56811;BME280;42691;47.234;27.494;2022-11-21T07:59:21;98658.31;;;7.79;100.00
56811;BME280;42691;47.234;27.494;2022-11-21T08:01:47;98632.91;;;7.54;100.00
56811;BME280;42691;47.234;27.494;2022-11-21T08:04:12;98640.25;;;7.62;100.00
56811;BME280;42691;47.234;27.494;2022-11-21T08:06:37;98652.78;;;7.69;100.00
56811;BME280;42691;47.234;27.494;2022-11-21T08:09:03;98652.47;;;7.75;100.00
56811;BME280;42691;47.234;27.494;2022-11-21T08:11:28;98639.50;;;7.75;100.00
56811;BME280;42691;47.234;27.494;2022-11-21T08:13:55;98637.63;;;7.95;100.00
56811;BME280;42691;47.234;27.494;2022-11-21T08:16:22;98626.09;;;7.84;100.00
56811;BME280;42691;47.234;27.494;2022-11-21T08:18:48;98619.34;;;7.82;100.00
56811;BME280;42691;47.234;27.494;2022-11-21T08:21:15;98637.03;;;7.90;100.00
56811;BME280;42691;47.234;27.494;2022-11-21T08:23:40;98645.31;;;7.96;100.00
56811;BME280;42691;47.234;27.494;2022-11-21T08:26:08;98629.09;;;7.93;100.00
56811;BME280;42691;47.234;27.494;2022-11-21T08:28:34;98616.25;;;7.91;100.00
56811;BME280;42691;47.234;27.494;2022-11-21T08:31:03;98608.97;;;7.82;100.00
56811;BME280;42691;47.234;27.494;2022-11-21T08:33:29;98591.84;;;7.95;100.00
56811;BME280;42691;47.234;27.494;2022-11-21T08:35:54;98595.19;;;7.97;100.00
56811;BME280;42691;47.234;27.494;2022-11-21T08:38:19;98591.19;;;7.92;100.00
56811;BME280;42691;47.234;27.494;2022-11-21T08:40:45;98599.88;;;7.91;100.00
56811;BME280;42691;47.234;27.494;2022-11-21T08:43:10;98604.78;;;7.95;100.00
56811;BME280;42691;47.234;27.494;2022-11-21T08:45:37;98608.88;;;7.99;100.00
56811;BME280;42691;47.234;27.494;2022-11-21T08:48:08;98607.22;;;7.98;100.00
56811;BME280;42691;47.234;27.494;2022-11-21T08:50:33;98592.94;;;7.91;100.00
56811;BME280;42691;47.234;27.494;2022-11-21T08:53:00;98599.38;;;8.00;100.00
56811;BME280;42691;47.234;27.494;2022-11-21T08:55:26;98599.53;;;7.97;100.00
56811;BME280;42691;47.234;27.494;2022-11-21T08:57:51;98603.53;;;8.02;100.00
56811;BME280;42691;47.234;27.494;2022-11-21T09:00:17;98601.03;;;8.01;100.00
56811;BME280;42691;47.234;27.494;2022-11-21T09:02:43;98608.19;;;8.11;100.00
56811;BME280;42691;47.234;27.494;2022-11-21T09:05:09;98588.16;;;7.99;100.00
56811;BME280;42691;47.234;27.494;2022-11-21T09:07:35;98608.38;;;8.08;100.00
56811;BME280;42691;47.234;27.494;2022-11-21T09:10:01;98581.56;;;8.09;100.00
56811;BME280;42691;47.234;27.494;2022-11-21T09:12:26;98586.56;;;8.12;100.00
56811;BME280;42691;47.234;27.494;2022-11-21T09:14:52;98577.47;;;8.05;100.00
56811;BME280;42691;47.234;27.494;2022-11-21T09:17:37;98595.25;;;8.11;100.00
56811;BME280;42691;47.234;27.494;2022-11-21T09:20:21;98567.63;;;7.96;100.00
56811;BME280;42691;47.234;27.494;2022-11-21T09:22:46;98586.56;;;8.12;100.00
56811;BME280;42691;47.234;27.494;2022-11-21T09:25:12;98593.31;;;8.15;100.00
56811;BME280;42691;47.234;27.494;2022-11-21T09:27:37;98579.53;;;8.14;100.00
56811;BME280;42691;47.234;27.494;2022-11-21T09:30:03;98570.94;;;8.14;100.00
56811;BME280;42691;47.234;27.494;2022-11-21T09:32:29;98562.41;;;8.12;100.00
56811;BME280;42691;47.234;27.494;2022-11-21T09:34:54;98547.13;;;8.07;100.00
56811;BME280;42691;47.234;27.494;2022-11-21T09:37:20;98530.84;;;8.05;100.00
56811;BME280;42691;47.234;27.494;2022-11-21T09:39:45;98526.50;;;8.06;100.00
56811;BME280;42691;47.234;27.494;2022-11-21T09:45:14;98501.59;;;8.03;100.00
56811;BME280;42691;47.234;27.494;2022-11-21T09:47:48;98499.41;;;8.11;100.00
56811;BME280;42691;47.234;27.494;2022-11-21T09:52:45;98495.41;;;8.06;100.00
56811;BME280;42691;47.234;27.494;2022-11-21T09:57:48;98476.81;;;7.99;100.00
56811;BME280;42691;47.234;27.494;2022-11-21T10:00:22;98467.53;;;7.95;100.00
56811;BME280;42691;47.234;27.494;2022-11-21T10:02:49;98466.63;;;7.96;100.00
56811;BME280;42691;47.234;27.494;2022-11-21T10:05:15;98468.28;;;7.97;100.00
56811;BME280;42691;47.234;27.494;2022-11-21T10:07:42;98469.03;;;7.99;100.00
56811;BME280;42691;47.234;27.494;2022-11-21T10:10:37;98470.88;;;7.97;100.00
56811;BME280;42691;47.234;27.494;2022-11-21T10:13:48;98466.22;;;7.88;100.00
56811;BME280;42691;47.234;27.494;2022-11-21T10:16:43;98467.72;;;7.92;100.00
56811;BME280;42691;47.234;27.494;2022-11-21T10:19:17;98474.41;;;7.96;100.00
56811;BME280;42691;47.234;27.494;2022-11-21T10:22:07;98469.22;;;7.96;100.00
56811;BME280;42691;47.234;27.494;2022-11-21T10:24:46;98456.09;;;7.99;100.00
56811;BME280;42691;47.234;27.494;2022-11-21T10:27:26;98460.91;;;8.05;100.00
56811;BME280;42691;47.234;27.494;2022-11-21T10:30:01;98458.16;;;8.08;100.00
56811;BME280;42691;47.234;27.494;2022-11-21T10:32:40;98453.88;;;8.07;100.00
56811;BME280;42691;47.234;27.494;2022-11-21T10:37:44;98456.72;;;8.19;100.00
56811;BME280;42691;47.234;27.494;2022-11-21T10:40:37;98458.53;;;8.16;100.00
56811;BME280;42691;47.234;27.494;2022-11-21T10:45:59;98456.91;;;8.30;100.00
56811;BME280;42691;47.234;27.494;2022-11-21T10:48:25;98464.88;;;8.27;100.00
56811;BME280;42691;47.234;27.494;2022-11-21T10:53:30;98464.44;;;8.34;100.00
56811;BME280;42691;47.234;27.494;2022-11-21T10:56:18;98460.09;;;8.35;100.00
56811;BME280;42691;47.234;27.494;2022-11-21T10:58:45;98462.59;;;8.36;100.00
56811;BME280;42691;47.234;27.494;2022-11-21T11:01:25;98461.03;;;8.34;100.00
56811;BME280;42691;47.234;27.494;2022-11-21T11:06:45;98465.56;;;8.44;100.00
56811;BME280;42691;47.234;27.494;2022-11-21T11:09:33;98455.22;;;8.44;100.00
56811;BME280;42691;47.234;27.494;2022-11-21T11:12:28;98456.88;;;8.45;100.00
56811;BME280;42691;47.234;27.494;2022-11-21T11:15:25;98441.97;;;8.49;100.00
56811;BME280;42691;47.234;27.494;2022-11-21T11:17:55;98436.06;;;8.47;100.00
56811;BME280;42691;47.234;27.494;2022-11-21T11:22:52;98433.69;;;8.58;100.00
56811;BME280;42691;47.234;27.494;2022-11-21T11:25:18;98431.28;;;8.55;100.00
56811;BME280;42691;47.234;27.494;2022-11-21T11:27:43;98437.75;;;8.62;100.00
56811;BME280;42691;47.234;27.494;2022-11-21T11:30:15;98444.41;;;8.66;100.00
56811;BME280;42691;47.234;27.494;2022-11-21T11:32:41;98440.09;;;9.36;100.00
56811;BME280;42691;47.234;27.494;2022-11-21T11:37:42;98429.56;;;9.11;100.00
56811;BME280;42691;47.234;27.494;2022-11-21T11:43:23;98432.19;;;8.97;100.00
56811;BME280;42691;47.234;27.494;2022-11-21T11:46:23;98433.38;;;8.91;100.00
56811;BME280;42691;47.234;27.494;2022-11-21T11:53:10;98432.72;;;8.88;100.00
56811;BME280;42691;47.234;27.494;2022-11-21T11:55:51;98426.25;;;8.81;100.00
56811;BME280;42691;47.234;27.494;2022-11-21T11:58:33;98427.72;;;8.85;100.00
56811;BME280;42691;47.234;27.494;2022-11-21T12:03:49;98421.44;;;8.89;100.00
56811;BME280;42691;47.234;27.494;2022-11-21T12:06:21;98419.50;;;8.92;100.00
56811;BME280;42691;47.234;27.494;2022-11-21T12:09:05;98416.16;;;8.90;100.00
56811;BME280;42691;47.234;27.494;2022-11-21T12:11:52;98406.16;;;8.84;100.00
56811;BME280;42691;47.234;27.494;2022-11-21T12:20:26;98408.66;;;8.86;100.00
56811;BME280;42691;47.234;27.494;2022-11-21T12:22:53;98399.59;;;8.78;100.00
56811;BME280;42691;47.234;27.494;2022-11-21T12:25:24;98406.25;;;8.83;100.00
56811;BME280;42691;47.234;27.494;2022-11-21T12:27:53;98404.13;;;8.75;100.00
56811;BME280;42691;47.234;27.494;2022-11-21T12:33:21;98410.78;;;8.79;100.00
56811;BME280;42691;47.234;27.494;2022-11-21T12:41:27;98418.13;;;8.72;100.00
56811;BME280;42691;47.234;27.494;2022-11-21T12:47:48;98405.63;;;8.65;100.00
56811;BME280;42691;47.234;27.494;2022-11-21T12:59:30;98403.88;;;8.65;100.00
56811;BME280;42691;47.234;27.494;2022-11-21T13:02:22;98400.34;;;8.66;100.00
56811;BME280;42691;47.234;27.494;2022-11-21T13:04:49;98402.75;;;8.69;100.00
56811;BME280;42691;47.234;27.494;2022-11-21T13:07:16;98396.91;;;8.66;100.00
56811;BME280;42691;47.234;27.494;2022-11-21T13:09:46;98395.91;;;8.68;100.00
56811;BME280;42691;47.234;27.494;2022-11-21T13:12:26;98382.19;;;8.66;100.00
56811;BME280;42691;47.234;27.494;2022-11-21T13:15:15;98394.03;;;8.70;100.00
56811;BME280;42691;47.234;27.494;2022-11-21T13:17:48;98389.22;;;8.64;100.00
56811;BME280;42691;47.234;27.494;2022-11-21T13:22:59;98400.63;;;8.62;100.00
56811;BME280;42691;47.234;27.494;2022-11-21T13:30:53;98394.41;;;8.50;100.00
56811;BME280;42691;47.234;27.494;2022-11-21T13:36:09;98405.50;;;8.52;100.00
56811;BME280;42691;47.234;27.494;2022-11-21T13:57:34;98422.44;;;8.43;100.00
56811;BME280;42691;47.234;27.494;2022-11-21T14:00:33;98431.78;;;8.46;100.00
56811;BME280;42691;47.234;27.494;2022-11-21T14:06:18;98430.41;;;8.55;100.00
56811;BME280;42691;47.234;27.494;2022-11-21T14:11:54;98434.66;;;8.41;100.00
56811;BME280;42691;47.234;27.494;2022-11-21T14:14:26;98419.94;;;8.42;100.00
56811;BME280;42691;47.234;27.494;2022-11-21T14:17:21;98429.03;;;8.49;100.00
56811;BME280;42691;47.234;27.494;2022-11-21T14:19:43;98432.91;;;8.42;100.00
56811;BME280;42691;47.234;27.494;2022-11-21T14:22:27;98435.69;;;8.39;100.00
56811;BME280;42691;47.234;27.494;2022-11-21T14:24:56;98435.50;;;8.42;100.00
56811;BME280;42691;47.234;27.494;2022-11-21T14:27:28;98428.66;;;8.41;100.00
56811;BME280;42691;47.234;27.494;2022-11-21T14:29:54;98419.47;;;8.35;100.00
56811;BME280;42691;47.234;27.494;2022-11-21T14:32:27;98433.09;;;8.39;100.00
56811;BME280;42691;47.234;27.494;2022-11-21T14:35:18;98435.84;;;8.36;100.00
56811;BME280;42691;47.234;27.494;2022-11-21T14:37:44;98430.69;;;8.36;100.00
56811;BME280;42691;47.234;27.494;2022-11-21T14:40:11;98441.78;;;8.38;100.00
56811;BME280;42691;47.234;27.494;2022-11-21T14:42:38;98431.28;;;8.25;100.00
56811;BME280;42691;47.234;27.494;2022-11-21T14:45:15;98437.03;;;8.30;100.00
56811;BME280;42691;47.234;27.494;2022-11-21T14:47:49;98445.31;;;8.37;100.00